Time;durP1;ratioP1;P1;durP2;ratioP2;P2;SDS_P1;SDS_P2;PMS_P1;PMS_P2;Temp;Humidity;BMP_temperature;BMP_pressure;BME280_temperature;BME280_humidity;BME280_pressure;Samples;Min_cycle;Max_cycle;Signal;HPM_P1;HPM_P2
2022/06/22 00:01:21;;;;;;;4.07;2.55;;;17.50;67.70;;;;;;5088411;28;20409;-67
2022/06/22 00:03:52;;;;;;;4.25;2.47;;;17.50;67.80;;;;;;5089114;28;20102;-67
2022/06/22 00:06:35;;;;;;;3.20;2.47;;;17.40;67.90;;;;;;5080665;28;20028;-67
2022/06/22 00:09:01;;;;;;;4.45;2.30;;;17.40;68.70;;;;;;5084916;28;20063;-67
2022/06/22 00:11:27;;;;;;;5.47;2.67;;;17.40;68.10;;;;;;5086256;28;20031;-67
2022/06/22 00:13:58;;;;;;;5.22;2.72;;;17.40;68.10;;;;;;5090203;28;20036;-67
2022/06/22 00:16:30;;;;;;;4.20;2.67;;;17.40;68.20;;;;;;5090810;28;20032;-65
2022/06/22 00:18:56;;;;;;;;;;;17.40;68.30;;;;;;5088845;28;20271;-67
2022/06/22 00:21:40;;;;;;;4.82;3.05;;;17.30;68.40;;;;;;5089312;28;19908;-66
2022/06/22 00:24:23;;;;;;;5.00;2.50;;;17.30;68.90;;;;;;5090101;28;20604;-67
2022/06/22 00:27:14;;;;;;;3.88;2.78;;;17.20;69.00;;;;;;5080916;28;20043;-68
2022/06/22 00:29:40;;;;;;;5.95;3.08;;;17.10;68.90;;;;;;5090579;28;20179;-67
2022/06/22 00:32:26;;;;;;;4.00;2.85;;;17.10;69.10;;;;;;5090082;28;20020;-68
2022/06/22 00:34:52;;;;;;;4.28;2.75;;;17.10;69.30;;;;;;5086592;28;20053;-66
2022/06/22 00:37:19;;;;;;;4.43;3.03;;;17.10;69.20;;;;;;5084732;28;20588;-68
2022/06/22 00:39:48;;;;;;;5.57;3.08;;;17.00;69.30;;;;;;5087514;28;20098;-66
2022/06/22 00:42:24;;;;;;;5.15;3.03;;;17.00;69.60;;;;;;5089839;28;20506;-67
2022/06/22 00:44:55;;;;;;;5.45;3.20;;;17.00;69.70;;;;;;5088703;28;20085;-67
2022/06/22 00:47:30;;;;;;;6.53;3.30;;;17.00;69.80;;;;;;5087441;28;20050;-67
2022/06/22 00:50:19;;;;;;;5.72;3.30;;;16.90;69.80;;;;;;5086794;28;20028;-68
2022/06/22 00:52:53;;;;;;;4.55;3.13;;;16.90;69.80;;;;;;5075174;28;20028;-69
2022/06/22 00:55:30;;;;;;;5.75;3.40;;;16.90;69.90;;;;;;5075807;28;20578;-67
2022/06/22 00:58:18;;;;;;;4.47;3.30;;;16.90;70.10;;;;;;5080583;28;20035;-67
2022/06/22 01:01:07;;;;;;;4.80;3.00;;;16.80;70.20;;;;;;5086325;28;20036;-68
2022/06/22 01:03:35;;;;;;;5.45;3.10;;;16.80;70.30;;;;;;5090071;28;20027;-68
2022/06/22 01:06:24;;;;;;;4.57;3.58;;;16.80;70.40;;;;;;5085952;28;20039;-67
2022/06/22 01:09:02;;;;;;;6.03;3.65;;;16.70;70.60;;;;;;5087860;28;20020;-68
2022/06/22 01:14:57;;;;;;;6.20;3.72;;;16.60;71.10;;;;;;5085920;28;20047;-68
2022/06/22 01:17:35;;;;;;;5.97;3.45;;;16.50;71.20;;;;;;5079411;28;20032;-68
2022/06/22 01:20:17;;;;;;;4.57;3.05;;;16.50;71.20;;;;;;5082133;28;20012;-68
2022/06/22 01:22:58;;;;;;;;;;;16.50;71.30;;;;;;5085993;28;20028;-67
2022/06/22 01:25:47;;;;;;;7.15;3.80;;;16.40;71.10;;;;;;5097314;28;19939;-68
2022/06/22 01:28:14;;;;;;;5.95;3.55;;;16.40;71.50;;;;;;5074472;28;20067;-67
2022/06/22 01:30:49;;;;;;;4.55;3.53;;;16.40;71.60;;;;;;5086938;28;20479;-67
2022/06/22 01:33:34;;;;;;;5.55;3.80;;;16.40;71.70;;;;;;5083590;28;20490;-67
2022/06/22 01:36:22;;;;;;;6.38;4.15;;;16.30;71.90;;;;;;5072864;28;20024;-68
2022/06/22 01:38:48;;;;;;;6.32;3.92;;;16.30;71.90;;;;;;5081040;28;20036;-68
2022/06/22 01:41:39;;;;;;;5.10;4.00;;;16.30;72.10;;;;;;5083594;28;20032;-68
2022/06/22 01:44:20;;;;;;;3.47;2.72;;;16.30;72.10;;;;;;5082354;28;20035;-66
2022/06/22 01:46:52;;;;;;;4.10;3.65;;;16.20;72.10;;;;;;5087788;28;20047;-68
2022/06/22 01:49:31;;;;;;;6.47;3.75;;;16.20;72.50;;;;;;5086647;28;20482;-67
2022/06/22 01:52:07;;;;;;;3.60;2.78;;;16.10;72.40;;;;;;5075483;28;20020;-67
2022/06/22 01:54:40;;;;;;;5.47;4.20;;;16.10;72.20;;;;;;5093408;28;20027;-66
2022/06/22 01:57:22;;;;;;;7.25;3.90;;;16.00;73.40;;;;;;5087293;28;20016;-66
2022/06/22 01:59:55;;;;;;;5.72;3.67;;;16.00;73.40;;;;;;5093965;28;20068;-66
2022/06/22 02:02:38;;;;;;;6.28;4.18;;;16.00;73.30;;;;;;5096694;28;20035;-67
2022/06/22 02:05:20;;;;;;;5.18;3.90;;;16.00;73.30;;;;;;5082186;28;20494;-67
2022/06/22 02:07:56;;;;;;;5.63;3.67;;;16.10;73.30;;;;;;5090964;28;20054;-67
2022/06/22 02:10:51;;;;;;;4.35;3.40;;;16.00;73.20;;;;;;5091258;28;20085;-68
2022/06/22 02:13:37;;;;;;;5.90;4.28;;;16.00;73.20;;;;;;5086869;28;20529;-68
2022/06/22 02:16:17;;;;;;;7.78;4.15;;;16.00;73.20;;;;;;5072968;28;20032;-66
2022/06/22 02:18:47;;;;;;;6.85;3.80;;;15.90;73.40;;;;;;5092243;28;20027;-68
2022/06/22 02:21:26;;;;;;;5.47;4.00;;;15.90;73.30;;;;;;5088656;28;20104;-69
2022/06/22 02:24:06;;;;;;;5.65;3.90;;;15.90;73.30;;;;;;5088385;28;21426;-68
2022/06/22 02:26:38;;;;;;;5.82;3.70;;;15.90;73.30;;;;;;5094876;28;20033;-67
2022/06/22 02:29:04;;;;;;;;;;;15.90;73.30;;;;;;5084208;28;20039;-68
2022/06/22 02:31:31;;;;;;;5.93;3.78;;;15.80;73.20;;;;;;5088854;28;19924;-68
2022/06/22 02:33:57;;;;;;;5.15;4.07;;;15.80;73.50;;;;;;5086610;28;20031;-69
2022/06/22 02:36:28;;;;;;;5.10;3.78;;;15.70;73.60;;;;;;5090851;28;20107;-68
2022/06/22 02:38:56;;;;;;;6.45;4.88;;;15.70;73.60;;;;;;5090362;28;20032;-67
2022/06/22 02:47:16;;;;;;;7.13;5.10;;;15.60;74.00;;;;;;5072206;28;20101;-68
2022/06/22 02:49:55;;;;;;;5.00;3.70;;;15.60;74.10;;;;;;5088952;28;20024;-70
2022/06/22 02:52:25;;;;;;;6.70;4.72;;;15.60;74.10;;;;;;5083384;28;20020;-68
2022/06/22 02:54:55;;;;;;;5.80;4.28;;;15.50;74.60;;;;;;5092010;28;20016;-67
2022/06/22 02:57:49;;;;;;;6.65;4.53;;;15.50;74.50;;;;;;5089223;28;20483;-68
2022/06/22 03:00:18;;;;;;;6.18;3.72;;;15.50;74.40;;;;;;5074852;28;20098;-66
2022/06/22 03:02:45;;;;;;;7.45;5.25;;;15.50;74.20;;;;;;5086247;28;20024;-66
2022/06/22 03:05:13;;;;;;;6.07;4.30;;;15.50;74.30;;;;;;5090881;28;20183;-66
2022/06/22 03:07:42;;;;;;;8.30;5.10;;;15.50;74.40;;;;;;5090005;28;20482;-67
2022/06/22 03:10:19;;;;;;;6.25;4.90;;;15.50;74.60;;;;;;5091873;28;20020;-66
2022/06/22 03:12:45;;;;;;;6.60;4.53;;;15.50;74.80;;;;;;5085264;28;20115;-67
2022/06/22 03:15:15;;;;;;;6.82;4.50;;;15.40;74.60;;;;;;5089419;28;20106;-68
2022/06/22 03:17:40;;;;;;;6.38;4.93;;;15.50;74.70;;;;;;5088170;28;20016;-68
2022/06/22 03:20:11;;;;;;;6.82;4.95;;;15.40;74.70;;;;;;5090038;28;20023;-67
2022/06/22 03:22:40;;;;;;;7.88;5.20;;;15.40;74.80;;;;;;5088237;28;20020;-69
2022/06/22 03:25:24;;;;;;;6.65;5.00;;;15.40;75.00;;;;;;5088796;28;20023;-67
2022/06/22 03:27:54;;;;;;;6.95;4.90;;;15.40;75.00;;;;;;5089871;28;20031;-68
2022/06/22 03:30:23;;;;;;;6.93;4.70;;;15.30;75.10;;;;;;5091751;28;20135;-68
2022/06/22 03:32:58;;;;;;;7.68;4.72;;;15.30;75.20;;;;;;5088563;28;20036;-68
2022/06/22 03:35:56;;;;;;;7.22;5.10;;;15.30;75.20;;;;;;5089516;28;20486;-68
2022/06/22 03:38:26;;;;;;;6.35;4.50;;;15.40;75.20;;;;;;5072420;28;20032;-68
2022/06/22 03:41:03;;;;;;;5.45;4.60;;;15.40;75.10;;;;;;5093597;28;21308;-68
2022/06/22 03:43:46;;;;;;;5.57;4.40;;;15.40;75.00;;;;;;5097882;28;20494;-67
2022/06/22 03:46:36;;;;;;;9.23;6.45;;;15.40;75.00;;;;;;5084995;28;20024;-68
2022/06/22 03:49:12;;;;;;;8.25;6.43;;;15.30;75.20;;;;;;5089640;28;20490;-68
2022/06/22 03:51:37;;;;;;;7.57;5.40;;;15.30;75.30;;;;;;5090914;28;20115;-68
2022/06/22 03:54:15;;;;;;;8.48;6.10;;;15.30;75.30;;;;;;5081329;28;20438;-67
2022/06/22 03:56:47;;;;;;;5.95;4.80;;;15.30;75.70;;;;;;5090164;28;20028;-69
2022/06/22 03:59:13;;;;;;;7.10;4.88;;;15.20;75.80;;;;;;5082926;28;20051;-69
2022/06/22 04:01:40;;;;;;;6.25;4.70;;;15.20;75.90;;;;;;5090925;28;20059;-69
2022/06/22 04:04:06;;;;;;;6.53;4.20;;;15.30;75.70;;;;;;5081666;28;20367;-69
2022/06/22 04:06:43;;;;;;;6.05;4.53;;;15.30;75.50;;;;;;5090840;28;20032;-69
2022/06/22 04:09:24;;;;;;;7.93;4.65;;;15.40;75.40;;;;;;5083191;28;20059;-68
2022/06/22 04:11:55;;;;;;;6.07;4.68;;;15.40;75.20;;;;;;5092188;28;20032;-68
2022/06/22 04:14:32;;;;;;;6.40;4.43;;;15.50;75.10;;;;;;5088371;28;20039;-69
2022/06/22 04:17:13;;;;;;;5.63;4.72;;;15.50;74.90;;;;;;5078393;28;20020;-65
2022/06/22 04:19:48;;;;;;;5.38;3.47;;;15.50;74.80;;;;;;5091523;28;20027;-68
2022/06/22 04:22:21;;;;;;;5.40;3.90;;;15.60;74.50;;;;;;5089808;28;20115;-68
2022/06/22 04:24:52;;;;;;;6.22;4.25;;;15.70;74.40;;;;;;5072447;28;20032;-67
2022/06/22 04:27:30;;;;;;;7.53;4.78;;;15.70;74.40;;;;;;5095564;28;20032;-68
2022/06/22 04:29:58;;;;;;;6.65;4.93;;;15.70;74.30;;;;;;5086154;28;20028;-66
2022/06/22 04:32:33;;;;;;;7.93;5.47;;;15.70;74.30;;;;;;5102851;28;20032;-67
2022/06/22 04:35:21;;;;;;;4.82;3.97;;;15.70;74.30;;;;;;5078666;28;20020;-67
2022/06/22 04:37:53;;;;;;;7.13;4.85;;;15.70;74.20;;;;;;5089657;28;20040;-68
2022/06/22 04:40:23;;;;;;;6.50;4.85;;;15.70;74.40;;;;;;5082375;28;20022;-68
2022/06/22 04:42:54;;;;;;;7.05;4.85;;;15.70;74.30;;;;;;5093593;28;20012;-68
2022/06/22 04:45:33;;;;;;;7.25;4.93;;;15.70;74.40;;;;;;5078398;28;20571;-68
2022/06/22 04:48:12;;;;;;;5.63;4.75;;;15.70;74.40;;;;;;5081024;28;20020;-66
2022/06/22 04:50:41;;;;;;;7.55;5.38;;;15.70;74.40;;;;;;5088383;28;20062;-67
2022/06/22 04:53:15;;;;;;;5.97;5.07;;;15.90;74.30;;;;;;5086141;28;20421;-68
2022/06/22 04:55:41;;;;;;;5.97;4.25;;;16.50;73.10;;;;;;5082358;28;20106;-67
2022/06/22 04:58:24;;;;;;;6.50;5.20;;;17.00;71.60;;;;;;5088769;28;20760;-67
2022/06/22 05:00:50;;;;;;;5.80;4.70;;;17.40;70.30;;;;;;5080668;28;20027;-66
2022/06/22 05:03:16;;;;;;;5.55;4.20;;;17.90;69.10;;;;;;5089155;28;20066;-66
2022/06/22 05:05:42;;;;;;;5.68;4.45;;;18.20;67.90;;;;;;5076982;28;20020;-68
2022/06/22 05:08:14;;;;;;;6.07;4.03;;;18.60;67.10;;;;;;5094862;28;20015;-67
2022/06/22 05:10:51;;;;;;;5.25;3.83;;;18.80;66.30;;;;;;5081163;28;20135;-67
2022/06/22 05:13:19;;;;;;;5.65;4.35;;;19.20;65.40;;;;;;5080440;28;20565;-68
2022/06/22 05:15:48;;;;;;;4.97;3.90;;;19.50;64.70;;;;;;5085994;28;20028;-67
2022/06/22 05:18:20;;;;;;;5.38;3.92;;;19.70;64.10;;;;;;5087552;28;20031;-66
2022/06/22 05:20:48;;;;;;;;;;;19.90;63.70;;;;;;5080264;28;20044;-67
2022/06/22 05:23:16;;;;;;;5.38;3.20;;;20.10;63.20;;;;;;5087088;27;20336;-68
2022/06/22 05:25:46;;;;;;;4.57;3.88;;;20.30;62.70;;;;;;5088386;28;20024;-67
2022/06/22 05:28:20;;;;;;;3.90;3.20;;;20.60;62.30;;;;;;5093590;28;20131;-67
2022/06/22 05:30:52;;;;;;;4.00;3.50;;;20.70;62.00;;;;;;5091513;28;20056;-68
2022/06/22 05:33:21;;;;;;;4.03;3.40;;;20.80;61.80;;;;;;5092035;28;20390;-67
2022/06/22 05:35:55;;;;;;;5.95;3.42;;;20.90;61.60;;;;;;5089468;28;20518;-68
2022/06/22 05:38:22;;;;;;;5.05;3.33;;;20.90;61.50;;;;;;5091934;28;20522;-68
2022/06/22 05:40:49;;;;;;;3.83;3.10;;;21.00;61.30;;;;;;5085658;28;20103;-68
2022/06/22 05:43:17;;;;;;;4.65;2.97;;;20.90;61.30;;;;;;5093954;28;20029;-67
2022/06/22 05:45:46;;;;;;;5.18;3.47;;;20.80;61.40;;;;;;5083399;28;20112;-69
2022/06/22 05:48:19;;;;;;;5.65;3.50;;;20.80;61.30;;;;;;5104180;28;20024;-69
2022/06/22 05:50:55;;;;;;;5.40;2.95;;;20.60;61.60;;;;;;5084941;28;20103;-68
2022/06/22 05:53:48;;;;;;;6.00;4.18;;;20.70;61.80;;;;;;5099015;28;20034;-68
2022/06/22 05:56:17;;;;;;;4.13;3.60;;;20.50;60.90;;;;;;5081156;28;20126;-67
2022/06/22 05:59:06;;;;;;;6.63;3.60;;;20.30;61.70;;;;;;5090097;28;20077;-68
2022/06/22 06:01:46;;;;;;;4.35;3.20;;;20.10;62.20;;;;;;5080847;28;20071;-68
2022/06/22 06:04:42;;;;;;;4.15;2.92;;;20.20;62.50;;;;;;5103412;28;20028;-68
2022/06/22 06:07:33;;;;;;;5.22;3.40;;;20.30;62.30;;;;;;5081508;28;20479;-68
2022/06/22 06:10:02;;;;;;;3.58;2.72;;;20.50;61.90;;;;;;5078291;28;20054;-68
2022/06/22 06:12:34;;;;;;;3.42;2.50;;;20.60;61.70;;;;;;5088358;28;20151;-68
2022/06/22 06:15:02;;;;;;;3.92;3.15;;;20.70;61.30;;;;;;5085095;28;20020;-68
2022/06/22 06:17:36;;;;;;;5.03;3.40;;;20.70;61.10;;;;;;5087984;28;21690;-69
2022/06/22 06:20:05;;;;;;;5.57;3.40;;;20.80;60.30;;;;;;5088247;28;20042;-70
2022/06/22 06:22:31;;;;;;;4.35;3.00;;;20.60;60.50;;;;;;5098173;28;20020;-69
2022/06/22 06:28:02;;;;;;;4.57;3.20;;;21.00;60.40;;;;;;5092008;28;20043;-69
2022/06/22 06:30:42;;;;;;;3.92;2.70;;;21.00;59.40;;;;;;5080292;28;20032;-69
2022/06/22 06:33:36;;;;;;;3.25;2.30;;;21.10;59.40;;;;;;5091608;28;20021;-69
2022/06/22 06:36:19;;;;;;;3.42;2.40;;;21.30;59.30;;;;;;5084418;28;20048;-68
2022/06/22 06:39:09;;;;;;;2.83;2.17;;;21.40;58.70;;;;;;5079256;28;20059;-67
2022/06/22 06:41:46;;;;;;;5.80;2.75;;;21.40;58.10;;;;;;5084095;28;20100;-68
2022/06/22 06:44:18;;;;;;;3.28;1.90;;;21.50;57.80;;;;;;5085938;28;20497;-68
2022/06/22 06:46:53;;;;;;;4.78;2.25;;;21.70;57.50;;;;;;5097508;28;20469;-69
2022/06/22 06:49:35;;;;;;;3.00;2.10;;;22.00;56.80;;;;;;5100524;28;20016;-69
2022/06/22 06:52:03;;;;;;;;;;;22.10;56.30;;;;;;5084072;28;20031;-69
2022/06/22 06:54:42;;;;;;;2.42;1.70;;;22.30;56.20;;;;;;5091373;28;19919;-69
2022/06/22 06:57:10;;;;;;;3.72;2.20;;;22.40;55.50;;;;;;5084597;28;20015;-69
2022/06/22 06:59:39;;;;;;;4.93;2.42;;;22.50;54.60;;;;;;5090674;28;20099;-68
2022/06/22 07:02:26;;;;;;;3.78;1.90;;;22.50;53.70;;;;;;5091491;28;20028;-69
2022/06/22 07:04:52;;;;;;;3.05;2.00;;;22.50;53.90;;;;;;5083497;28;20046;-69
2022/06/22 07:07:50;;;;;;;4.15;2.30;;;22.60;54.10;;;;;;5085044;28;20024;-68
2022/06/22 07:10:31;;;;;;;3.10;2.00;;;22.50;53.00;;;;;;5070549;28;20044;-67
2022/06/22 07:13:05;;;;;;;5.22;2.40;;;22.20;53.60;;;;;;5078886;28;20547;-68
2022/06/22 07:15:37;;;;;;;2.70;1.98;;;22.30;53.10;;;;;;5081665;28;20035;-68
2022/06/22 07:18:31;;;;;;;3.30;1.70;;;22.20;53.50;;;;;;5080313;28;20037;-68
2022/06/22 07:21:11;;;;;;;3.28;1.98;;;22.30;53.40;;;;;;5087607;28;20024;-68
2022/06/22 07:23:54;;;;;;;3.40;2.00;;;22.40;52.90;;;;;;5079680;28;20028;-68
2022/06/22 07:26:28;;;;;;;3.38;1.90;;;22.50;52.60;;;;;;5080899;28;20024;-68
2022/06/22 07:29:01;;;;;;;2.38;1.50;;;22.60;52.50;;;;;;5095153;28;20028;-68
2022/06/22 07:31:36;;;;;;;2.13;1.42;;;22.80;52.70;;;;;;5084400;28;20088;-67
2022/06/22 07:34:10;;;;;;;2.90;1.55;;;23.10;52.50;;;;;;5076965;28;20020;-68
2022/06/22 07:36:38;;;;;;;1.40;1.10;;;23.40;51.90;;;;;;5082176;28;20013;-67
2022/06/22 07:39:24;;;;;;;3.15;1.80;;;23.60;51.60;;;;;;5095740;28;20081;-68
2022/06/22 07:41:49;;;;;;;4.63;2.58;;;23.60;50.90;;;;;;5095601;28;20028;-68
2022/06/22 07:44:19;;;;;;;3.65;2.00;;;23.50;49.30;;;;;;5083529;28;20040;-67
2022/06/22 07:47:24;;;;;;;2.70;1.55;;;23.20;49.80;;;;;;5093985;28;20043;-67
2022/06/22 07:50:11;;;;;;;2.03;1.30;;;23.30;50.60;;;;;;5085495;28;20032;-68
2022/06/22 07:53:18;;;;;;;2.42;1.48;;;23.60;50.60;;;;;;5091060;28;20115;-67
2022/06/22 07:55:51;;;;;;;2.85;1.52;;;23.80;50.00;;;;;;5045728;28;20529;-67
2022/06/22 07:58:39;;;;;;;1.88;1.30;;;24.00;49.00;;;;;;5092392;28;20088;-68
2022/06/22 08:01:10;;;;;;;1.63;1.20;;;24.10;48.50;;;;;;5083126;28;20047;-67
2022/06/22 08:03:49;;;;;;;3.30;1.60;;;24.10;48.50;;;;;;5086904;28;20098;-67
2022/06/22 08:06:20;;;;;;;3.15;1.50;;;24.10;48.00;;;;;;5081815;28;20036;-69
2022/06/22 08:08:52;;;;;;;2.88;1.38;;;24.10;48.20;;;;;;5081031;28;20103;-67
2022/06/22 08:11:30;;;;;;;2.75;1.40;;;24.20;47.90;;;;;;5076466;28;20089;-67
2022/06/22 08:14:00;;;;;;;2.00;1.65;;;24.20;47.40;;;;;;5079194;28;20115;-68
2022/06/22 08:16:37;;;;;;;4.93;1.90;;;24.20;46.30;;;;;;5081323;28;20062;-67
2022/06/22 08:19:04;;;;;;;3.53;1.67;;;23.80;46.10;;;;;;5080224;28;21280;-67
2022/06/22 08:21:33;;;;;;;1.88;1.15;;;23.70;46.80;;;;;;5080316;28;20051;-67
2022/06/22 08:23:58;;;;;;;2.70;1.40;;;23.90;47.00;;;;;;5082617;28;20081;-67
2022/06/22 08:26:29;;;;;;;4.18;1.40;;;24.10;46.70;;;;;;5080448;28;20039;-67
2022/06/22 08:28:54;;;;;;;2.70;1.30;;;24.10;45.70;;;;;;5080900;28;20032;-67
2022/06/22 08:31:20;;;;;;;2.97;1.30;;;24.20;46.00;;;;;;5081675;28;20378;-68
2022/06/22 08:33:57;;;;;;;1.88;1.25;;;24.30;45.80;;;;;;5086512;28;20020;-68
2022/06/22 08:36:45;;;;;;;1.95;1.02;;;24.40;46.10;;;;;;5088268;28;20024;-67
2022/06/22 08:39:34;;;;;;;4.28;1.90;;;24.60;46.00;;;;;;5084104;28;20024;-67
2022/06/22 08:42:47;;;;;;;2.65;1.50;;;24.40;43.40;;;;;;5080976;28;20032;-68
2022/06/22 08:45:42;;;;;;;2.45;1.60;;;24.10;44.20;;;;;;5036376;28;20502;-68
2022/06/22 08:48:31;;;;;;;2.00;1.50;;;24.00;44.60;;;;;;5084053;28;20020;-67
2022/06/22 08:51:32;;;;;;;3.22;1.38;;;23.90;44.70;;;;;;5083453;28;20711;-67
2022/06/22 08:54:18;;;;;;;3.03;1.30;;;24.00;45.00;;;;;;5081524;28;20028;-67
2022/06/22 08:57:04;;;;;;;2.70;1.33;;;24.10;43.50;;;;;;5090628;28;20752;-68
2022/06/22 08:59:50;;;;;;;1.25;1.00;;;24.20;44.10;;;;;;5070912;28;20032;-68
2022/06/22 09:02:40;;;;;;;3.10;1.30;;;24.50;44.10;;;;;;5086824;28;20032;-67
2022/06/22 09:05:36;;;;;;;4.40;1.65;;;24.80;43.70;;;;;;5092267;28;20028;-67
2022/06/22 09:08:29;;;;;;;2.35;1.30;;;24.90;43.00;;;;;;5079950;28;20032;-68
2022/06/22 09:11:04;;;;;;;2.50;1.20;;;24.80;42.50;;;;;;5085870;28;20070;-67
2022/06/22 09:13:47;;;;;;;1.80;1.00;;;24.80;42.40;;;;;;5085826;28;20031;-67
2022/06/22 09:16:28;;;;;;;1.83;1.23;;;24.90;42.70;;;;;;5084603;28;20027;-67
2022/06/22 09:19:21;;;;;;;1.85;1.10;;;25.10;42.30;;;;;;5084225;28;20031;-67
2022/06/22 09:22:12;;;;;;;2.40;1.20;;;25.30;41.80;;;;;;5090414;28;20039;-68
2022/06/22 09:25:05;;;;;;;2.23;1.10;;;25.20;40.80;;;;;;5080769;28;20028;-67
2022/06/22 09:28:00;;;;;;;1.65;1.08;;;25.30;41.40;;;;;;5055344;28;20320;-68
2022/06/22 09:30:56;;;;;;;1.63;0.90;;;25.50;40.90;;;;;;5085915;28;20370;-67
2022/06/22 09:33:50;;;;;;;3.30;1.50;;;25.70;40.00;;;;;;5090927;28;20116;-67
2022/06/22 09:36:57;;;;;;;2.03;1.10;;;25.70;39.10;;;;;;5082238;28;20482;-67
2022/06/22 09:39:32;;;;;;;2.72;0.93;;;25.80;39.90;;;;;;5075185;28;20392;-67
2022/06/22 09:42:31;;;;;;;1.85;0.98;;;25.90;39.80;;;;;;5085080;28;20023;-67
2022/06/22 09:45:07;;;;;;;1.50;0.93;;;25.80;38.70;;;;;;5095008;28;20042;-68
2022/06/22 09:47:57;;;;;;;1.27;1.00;;;25.90;38.00;;;;;;5096322;28;20020;-67
2022/06/22 09:50:55;;;;;;;1.20;0.85;;;26.00;38.50;;;;;;5097919;28;20058;-68
2022/06/22 09:54:06;;;;;;;1.27;1.00;;;26.00;38.90;;;;;;5089790;28;20047;-67
2022/06/22 09:57:03;;;;;;;1.75;0.93;;;26.10;38.20;;;;;;5081706;28;20499;-68
2022/06/22 09:59:56;;;;;;;4.10;1.20;;;26.10;37.90;;;;;;5084667;28;20030;-67
2022/06/22 10:02:47;;;;;;;2.30;1.50;;;26.10;37.90;;;;;;5082010;28;20043;-68
2022/06/22 10:05:27;;;;;;;2.03;0.95;;;26.00;37.20;;;;;;5085441;28;20023;-68
2022/06/22 10:08:04;;;;;;;2.72;0.80;;;26.00;37.80;;;;;;5095496;28;20044;-68
2022/06/22 10:11:21;;;;;;;2.33;1.13;;;26.10;37.50;;;;;;5093265;28;20018;-67
2022/06/22 10:14:25;;;;;;;1.83;1.00;;;26.00;35.80;;;;;;5053581;28;20048;-68
2022/06/22 10:17:15;;;;;;;1.20;0.98;;;25.80;35.80;;;;;;5093398;28;20433;-68
2022/06/22 10:19:40;;;;;;;2.10;0.70;;;25.90;36.20;;;;;;5090065;28;20552;-68
2022/06/22 10:22:31;;;;;;;1.33;0.80;;;26.10;36.20;;;;;;5095272;28;20017;-68
2022/06/22 10:25:19;;;;;;;1.67;1.00;;;26.10;35.10;;;;;;5096399;28;20809;-69
2022/06/22 10:27:48;;;;;;;1.27;0.80;;;26.20;36.00;;;;;;5086986;28;20422;-68
2022/06/22 10:30:25;;;;;;;2.38;0.95;;;26.30;36.10;;;;;;5082853;28;20132;-67
2022/06/22 10:33:31;;;;;;;1.92;1.15;;;26.40;36.00;;;;;;5081267;28;20081;-65
2022/06/22 10:36:18;;;;;;;2.75;1.50;;;26.40;36.30;;;;;;5106769;28;20027;-68
2022/06/22 10:38:52;;;;;;;2.17;1.30;;;26.30;35.50;;;;;;5088378;28;20016;-67
2022/06/22 10:48:04;;;;;;;1.60;0.90;;;26.20;36.00;;;;;;5094601;28;20158;-68
2022/06/22 10:50:55;;;;;;;2.20;1.00;;;26.30;36.30;;;;;;5071892;28;20043;-67
2022/06/22 10:53:42;;;;;;;1.55;0.90;;;26.40;35.70;;;;;;5057771;28;20044;-67
2022/06/22 10:56:46;;;;;;;2.40;1.00;;;26.40;34.40;;;;;;5085633;28;20551;-68
2022/06/22 10:59:26;;;;;;;1.90;1.10;;;26.60;34.30;;;;;;5006005;28;20063;-68
2022/06/22 11:02:23;;;;;;;1.83;1.10;;;26.60;33.60;;;;;;5073317;28;20067;-68
2022/06/22 11:05:25;;;;;;;1.50;1.00;;;26.40;32.00;;;;;;5065486;28;20686;-68
2022/06/22 11:08:13;;;;;;;2.47;1.30;;;26.50;33.50;;;;;;5086860;28;21609;-67
2022/06/22 11:11:11;;;;;;;2.13;1.10;;;26.40;33.60;;;;;;5093250;28;20028;-67
2022/06/22 11:13:56;;;;;;;1.73;1.20;;;26.50;34.10;;;;;;5087064;28;20131;-68
2022/06/22 11:16:27;;;;;;;1.95;1.10;;;26.40;34.50;;;;;;5087730;28;20023;-68
2022/06/22 11:19:11;;;;;;;1.67;1.02;;;26.60;34.90;;;;;;5083753;28;20036;-67
2022/06/22 11:21:58;;;;;;;1.63;1.50;;;27.00;35.20;;;;;;5080927;28;20033;-67
2022/06/22 11:24:41;;;;;;;2.38;1.60;;;27.10;34.80;;;;;;5092435;28;20315;-68
2022/06/22 11:33:54;;;;;;;2.80;1.15;;;26.80;33.80;;;;;;5074930;28;20066;-67
2022/06/22 11:36:38;;;;;;;1.92;1.30;;;27.00;34.60;;;;;;5083238;28;20032;-68
2022/06/22 11:39:13;;;;;;;1.95;1.20;;;27.10;35.00;;;;;;5080560;28;20414;-67
2022/06/22 11:42:03;;;;;;;2.05;1.30;;;27.10;34.50;;;;;;5082198;28;20115;-68
2022/06/22 11:48:11;;;;;;;3.35;2.22;;;26.90;34.50;;;;;;5084137;28;20081;-69
2022/06/22 11:51:02;;;;;;;1.40;1.10;;;27.00;35.20;;;;;;5083115;28;20488;-66
2022/06/22 11:53:46;;;;;;;1.13;1.02;;;26.90;35.40;;;;;;5079291;28;20042;-66
2022/06/22 11:56:42;;;;;;;1.42;1.05;;;27.20;35.30;;;;;;5075782;28;20039;-67
2022/06/22 11:59:17;;;;;;;2.10;1.08;;;27.40;35.20;;;;;;5081449;28;20020;-67
2022/06/22 12:01:54;;;;;;;2.47;1.30;;;27.90;35.20;;;;;;5077996;28;20101;-67
2022/06/22 12:04:38;;;;;;;1.88;1.20;;;28.00;34.90;;;;;;5083127;28;20545;-67
2022/06/22 12:07:23;;;;;;;1.20;1.10;;;28.10;35.00;;;;;;5081026;28;20027;-67
2022/06/22 12:10:07;;;;;;;2.47;1.48;;;28.30;34.70;;;;;;5067041;28;20479;-66
2022/06/22 12:12:43;;;;;;;1.80;1.30;;;28.30;33.40;;;;;;5074340;28;20039;-67
2022/06/22 12:15:23;;;;;;;1.75;1.08;;;28.20;33.60;;;;;;5084334;28;20020;-67
2022/06/22 12:18:18;;;;;;;3.13;1.23;;;28.30;33.80;;;;;;5086169;28;20376;-67
2022/06/22 12:21:02;;;;;;;2.85;1.50;;;28.30;33.40;;;;;;5082510;28;20024;-66
2022/06/22 12:23:33;;;;;;;1.83;1.00;;;28.40;33.40;;;;;;5083740;28;20079;-67
2022/06/22 12:26:20;;;;;;;1.15;0.88;;;28.80;33.60;;;;;;5079980;28;20574;-67
2022/06/22 12:29:13;;;;;;;2.40;1.23;;;29.00;33.60;;;;;;5082162;28;20031;-67
2022/06/22 12:31:47;;;;;;;1.80;0.90;;;28.90;32.90;;;;;;5082214;28;20517;-68
2022/06/22 12:34:19;;;;;;;1.50;1.05;;;28.80;33.50;;;;;;5084160;28;20020;-67
2022/06/22 12:36:55;;;;;;;2.78;1.20;;;29.00;33.60;;;;;;5079679;28;20525;-66
2022/06/22 12:39:35;;;;;;;1.90;1.17;;;29.20;33.30;;;;;;5080950;28;20029;-67
2022/06/22 12:42:34;;;;;;;2.97;1.60;;;29.20;32.90;;;;;;5078109;28;20028;-67
2022/06/22 12:45:09;;;;;;;2.55;1.17;;;29.10;33.20;;;;;;5081921;28;20454;-66
2022/06/22 12:47:53;;;;;;;2.30;1.00;;;29.10;33.10;;;;;;5081007;28;20501;-66
2022/06/22 12:50:53;;;;;;;2.20;1.00;;;29.30;33.00;;;;;;5083931;28;20053;-66
2022/06/22 12:53:37;;;;;;;1.63;1.20;;;29.20;32.90;;;;;;5081809;28;20028;-67
2022/06/22 12:56:31;;;;;;;2.58;1.20;;;29.10;32.90;;;;;;5079555;28;20020;-66
2022/06/22 12:59:13;;;;;;;3.05;1.20;;;28.80;32.40;;;;;;5081405;28;20020;-66
2022/06/22 13:01:39;;;;;;;2.30;1.25;;;28.90;32.00;;;;;;5082434;28;20114;-66
2022/06/22 13:04:15;;;;;;;1.95;1.27;;;29.00;32.30;;;;;;5074565;28;20525;-67
2022/06/22 13:06:51;;;;;;;1.30;0.90;;;29.20;32.30;;;;;;5087413;28;20378;-66
2022/06/22 13:09:17;;;;;;;1.20;1.10;;;29.50;32.50;;;;;;5083437;28;20031;-66
2022/06/22 13:11:44;;;;;;;2.10;1.17;;;29.60;32.10;;;;;;5082256;28;20077;-66
2022/06/22 13:14:32;;;;;;;1.27;0.88;;;29.60;32.30;;;;;;5082653;28;20111;-66
2022/06/22 13:17:27;;;;;;;5.13;2.70;;;30.10;32.20;;;;;;5079560;28;20023;-66
2022/06/22 13:19:52;;;;;;;2.05;1.15;;;30.10;31.60;;;;;;5089314;28;20028;-66
2022/06/22 13:22:28;;;;;;;2.80;1.40;;;30.00;31.50;;;;;;5082956;28;20036;-68
2022/06/22 13:25:00;;;;;;;1.50;1.05;;;29.80;31.10;;;;;;5090929;28;20031;-67
2022/06/22 13:27:51;;;;;;;1.65;1.00;;;29.80;31.80;;;;;;5086004;28;20028;-68
2022/06/22 13:30:48;;;;;;;2.70;1.35;;;29.70;31.20;;;;;;5094300;28;20114;-67
2022/06/22 13:33:33;;;;;;;1.80;1.10;;;29.30;30.90;;;;;;5075647;28;20052;-67
2022/06/22 13:36:36;;;;;;;0.77;0.70;;;29.30;31.30;;;;;;5093353;28;20077;-67
2022/06/22 13:39:13;;;;;;;1.52;1.00;;;29.70;31.40;;;;;;5056938;28;20418;-68
2022/06/22 13:41:47;;;;;;;1.77;1.10;;;30.10;31.20;;;;;;5082120;28;20025;-67
2022/06/22 13:44:38;;;;;;;1.77;1.05;;;29.70;30.00;;;;;;5088820;28;20076;-68
2022/06/22 13:47:24;;;;;;;1.75;1.10;;;29.50;30.30;;;;;;5085644;28;20032;-68
2022/06/22 13:50:17;;;;;;;1.85;1.13;;;29.80;30.20;;;;;;5079021;28;20036;-67
2022/06/22 13:52:56;;;;;;;2.25;1.23;;;29.80;30.60;;;;;;5081786;28;20028;-67
2022/06/22 13:55:41;;;;;;;1.17;0.85;;;29.90;29.70;;;;;;5090773;28;20024;-67
2022/06/22 13:58:35;;;;;;;0.80;0.60;;;29.90;29.50;;;;;;5084187;28;20550;-68
2022/06/22 14:01:03;;;;;;;3.20;1.00;;;30.10;29.60;;;;;;5080117;28;20028;-66
2022/06/22 14:03:31;;;;;;;1.35;1.00;;;29.80;29.40;;;;;;5076645;28;20108;-67
2022/06/22 14:06:15;;;;;;;1.85;0.90;;;29.50;29.40;;;;;;5081877;28;20040;-67
2022/06/22 14:08:58;;;;;;;1.00;0.90;;;29.80;29.80;;;;;;5081638;28;20047;-66
2022/06/22 14:11:28;;;;;;;0.85;0.60;;;29.50;29.60;;;;;;5083838;28;20028;-68
2022/06/22 14:14:00;;;;;;;2.00;0.80;;;29.80;30.00;;;;;;5085598;28;20020;-67
2022/06/22 14:17:11;;;;;;;1.80;0.80;;;30.00;29.70;;;;;;5088839;28;20114;-67
2022/06/22 14:20:01;;;;;;;1.33;0.80;;;30.30;29.80;;;;;;5052749;28;20036;-66